Time;durP1;ratioP1;P1;durP2;ratioP2;P2;SDS_P1;SDS_P2;PMS_P1;PMS_P2;Temp;Humidity;BMP_temperature;BMP_pressure;BME280_temperature;BME280_humidity;BME280_pressure;Samples;Min_cycle;Max_cycle;Signal;HPM_P1;HPM_P2
2023/12/17 00:01:13;;;;;;;17.63;9.77;;;8.50;99.90;;;;;;5031397;28;20187;-71
2023/12/17 00:03:39;;;;;;;16.87;9.77;;;8.60;99.90;;;;;;5031661;28;20246;-70
2023/12/17 00:06:05;;;;;;;17.33;10.37;;;8.60;99.90;;;;;;5032471;28;20192;-70
2023/12/17 00:08:31;;;;;;;13.40;9.60;;;8.60;99.90;;;;;;5032026;28;20290;-71
2023/12/17 00:10:58;;;;;;;17.17;10.00;;;8.60;99.90;;;;;;5031807;28;20290;-71
2023/12/17 00:13:27;;;;;;;15.30;10.30;;;8.60;99.90;;;;;;5031427;28;20172;-70
2023/12/17 00:15:53;;;;;;;18.83;10.33;;;8.70;99.90;;;;;;5031843;28;20192;-71
2023/12/17 00:18:18;;;;;;;17.50;9.87;;;8.70;99.90;;;;;;5031477;28;20686;-71
2023/12/17 00:20:44;;;;;;;17.53;10.40;;;8.70;99.90;;;;;;5031944;28;20639;-71
2023/12/17 00:23:09;;;;;;;14.17;10.33;;;8.70;99.90;;;;;;5031446;28;20187;-70
2023/12/17 00:25:35;;;;;;;16.47;10.80;;;8.70;99.90;;;;;;5031344;28;20183;-71
2023/12/17 00:28:01;;;;;;;16.27;10.73;;;8.70;99.90;;;;;;5030932;28;20195;-71
2023/12/17 00:30:26;;;;;;;21.27;10.87;;;8.70;99.90;;;;;;5031591;28;20188;-70
2023/12/17 00:32:52;;;;;;;22.20;11.77;;;8.70;99.90;;;;;;5030614;28;20179;-70
2023/12/17 00:35:18;;;;;;;17.70;10.23;;;8.70;99.90;;;;;;5031419;28;20716;-71
2023/12/17 00:37:43;;;;;;;15.23;10.60;;;8.70;99.90;;;;;;5031259;28;20230;-70
2023/12/17 00:40:09;;;;;;;16.37;10.20;;;8.70;99.90;;;;;;5031585;28;20203;-71
2023/12/17 00:42:35;;;;;;;17.23;10.57;;;8.70;99.90;;;;;;5031207;28;20203;-71
2023/12/17 00:45:00;;;;;;;16.03;10.70;;;8.70;99.90;;;;;;5031106;28;20176;-70
2023/12/17 00:47:26;;;;;;;11.23;9.67;;;8.70;99.90;;;;;;5030723;28;20195;-71
2023/12/17 00:49:52;;;;;;;17.33;10.87;;;8.70;99.90;;;;;;5029380;28;20179;-71
2023/12/17 00:52:20;;;;;;;14.23;10.13;;;8.70;99.90;;;;;;5031688;28;20290;-70
2023/12/17 00:54:46;;;;;;;15.03;10.77;;;8.70;99.90;;;;;;5031523;28;20183;-71
2023/12/17 00:57:12;;;;;;;12.67;9.50;;;8.70;99.90;;;;;;5029506;28;20200;-71
2023/12/17 00:59:37;;;;;;;18.93;9.87;;;8.70;99.90;;;;;;5030636;28;20187;-71
2023/12/17 01:02:03;;;;;;;15.53;9.47;;;8.60;99.90;;;;;;5031136;28;20184;-73
2023/12/17 01:04:29;;;;;;;15.67;10.20;;;8.60;99.90;;;;;;5031263;28;20197;-71
2023/12/17 01:06:54;;;;;;;16.67;9.67;;;8.60;99.90;;;;;;5031163;28;20242;-70
2023/12/17 01:09:20;;;;;;;15.80;9.97;;;8.60;99.90;;;;;;5029865;28;20658;-72
2023/12/17 01:11:45;;;;;;;16.83;9.43;;;8.60;99.90;;;;;;5011899;28;20273;-72
2023/12/17 01:14:11;;;;;;;22.50;11.03;;;8.50;99.90;;;;;;5029219;28;20176;-72
2023/12/17 01:16:37;;;;;;;19.57;10.87;;;8.50;99.90;;;;;;5030947;28;20175;-71
2023/12/17 01:19:02;;;;;;;16.00;11.07;;;8.50;99.90;;;;;;5030952;28;20541;-71
2023/12/17 01:21:28;;;;;;;16.60;10.57;;;8.60;99.90;;;;;;5031000;28;20179;-71
2023/12/17 01:23:53;;;;;;;19.87;10.53;;;8.50;99.90;;;;;;5030369;28;20175;-71
2023/12/17 01:26:20;;;;;;;16.07;10.43;;;8.50;99.90;;;;;;5031009;28;20203;-71
2023/12/17 01:28:47;;;;;;;16.17;11.43;;;8.50;99.90;;;;;;5031114;28;20665;-71
2023/12/17 01:31:13;;;;;;;16.77;11.67;;;8.50;99.90;;;;;;5030309;28;20261;-71
2023/12/17 01:33:38;;;;;;;15.60;9.87;;;8.50;99.90;;;;;;5030422;28;20474;-71
2023/12/17 01:36:04;;;;;;;14.83;10.73;;;8.40;99.90;;;;;;5030061;28;20279;-71
2023/12/17 01:38:30;;;;;;;15.13;10.33;;;8.40;99.90;;;;;;5030565;28;20195;-71
2023/12/17 01:40:55;;;;;;;19.23;11.50;;;8.40;99.90;;;;;;5030770;28;20716;-73
2023/12/17 01:43:21;;;;;;;16.80;11.33;;;8.30;99.90;;;;;;5030518;28;20669;-69
2023/12/17 01:45:47;;;;;;;18.80;11.37;;;8.30;99.90;;;;;;5030456;28;20183;-71
2023/12/17 01:48:13;;;;;;;18.10;11.07;;;8.30;99.90;;;;;;5029975;28;20206;-71
2023/12/17 01:50:39;;;;;;;15.37;10.70;;;8.30;99.90;;;;;;5030688;28;20187;-71
2023/12/17 01:53:04;;;;;;;15.40;10.37;;;8.30;99.90;;;;;;5030337;28;20181;-71
2023/12/17 01:55:30;;;;;;;16.77;10.93;;;8.30;99.90;;;;;;5030436;28;20219;-70
2023/12/17 01:57:57;;;;;;;17.23;10.43;;;8.30;99.90;;;;;;5030266;28;20195;-71
2023/12/17 02:00:24;;;;;;;17.70;11.27;;;8.30;99.90;;;;;;5030356;28;20541;-71
2023/12/17 02:02:50;;;;;;;14.77;10.00;;;8.30;99.90;;;;;;5030290;28;20186;-70
2023/12/17 02:05:16;;;;;;;16.60;10.03;;;8.30;99.90;;;;;;5030117;28;20263;-70
2023/12/17 02:07:42;;;;;;;12.10;9.80;;;8.30;99.90;;;;;;5029469;28;20274;-70
2023/12/17 02:10:08;;;;;;;12.83;9.77;;;8.20;99.90;;;;;;5031950;28;20258;-70
2023/12/17 02:12:34;;;;;;;15.70;9.53;;;8.20;99.90;;;;;;5033950;28;20183;-70
2023/12/17 02:14:59;;;;;;;13.27;10.13;;;8.20;99.90;;;;;;5033997;28;20190;-69
2023/12/17 02:17:29;;;;;;;15.30;10.37;;;8.20;99.90;;;;;;5033522;28;20678;-71
2023/12/17 02:19:55;;;;;;;13.53;9.23;;;8.30;99.90;;;;;;5033441;28;20259;-71
2023/12/17 02:22:25;;;;;;;11.57;9.83;;;8.30;99.90;;;;;;5032456;28;20259;-71
2023/12/17 02:24:54;;;;;;;14.77;10.40;;;8.30;99.90;;;;;;5033537;28;20191;-71
2023/12/17 02:27:24;;;;;;;12.70;10.03;;;8.30;99.90;;;;;;5033389;28;20215;-70
2023/12/17 02:29:51;;;;;;;12.50;9.93;;;8.30;99.90;;;;;;5033885;28;20602;-71
2023/12/17 02:32:17;;;;;;;11.97;9.67;;;8.30;99.90;;;;;;5032991;28;20203;-70
2023/12/17 02:34:43;;;;;;;13.20;9.20;;;8.30;99.90;;;;;;5033422;28;20263;-71
2023/12/17 02:37:09;;;;;;;11.93;9.77;;;8.20;99.90;;;;;;5033065;28;20210;-71
2023/12/17 02:39:35;;;;;;;12.60;10.13;;;8.20;99.90;;;;;;5033233;28;20179;-71
2023/12/17 02:42:01;;;;;;;13.80;9.57;;;8.20;99.90;;;;;;5033007;28;20194;-71
2023/12/17 02:44:26;;;;;;;11.87;9.83;;;8.20;99.90;;;;;;5033420;28;20239;-70
2023/12/17 02:46:53;;;;;;;12.47;9.57;;;8.20;99.90;;;;;;5033145;28;20665;-72
2023/12/17 02:49:19;;;;;;;10.23;9.17;;;8.10;99.90;;;;;;5032896;28;20560;-71
2023/12/17 02:51:44;;;;;;;12.43;10.00;;;8.10;99.90;;;;;;5033009;28;20203;-70
2023/12/17 02:54:10;;;;;;;17.47;10.23;;;8.20;99.90;;;;;;5033130;28;20195;-71
2023/12/17 02:56:39;;;;;;;12.63;10.33;;;8.10;99.90;;;;;;5033551;28;20187;-70
2023/12/17 02:59:08;;;;;;;14.33;10.93;;;8.00;99.90;;;;;;5032761;28;20650;-71
2023/12/17 03:01:33;;;;;;;14.30;10.53;;;8.00;99.90;;;;;;5032488;28;20191;-72
2023/12/17 03:03:59;;;;;;;13.67;9.80;;;8.00;99.90;;;;;;5032382;28;20237;-71
2023/12/17 03:06:24;;;;;;;15.27;10.07;;;8.00;99.90;;;;;;5033242;28;20180;-70
2023/12/17 03:08:50;;;;;;;13.00;9.70;;;8.00;99.90;;;;;;5032914;28;20179;-71
2023/12/17 03:11:16;;;;;;;12.30;10.40;;;8.00;99.90;;;;;;5032910;28;20214;-70
2023/12/17 03:13:41;;;;;;;12.93;11.00;;;8.00;99.90;;;;;;5032522;28;20202;-73
2023/12/17 03:16:08;;;;;;;22.07;15.13;;;8.00;99.90;;;;;;5032707;28;20175;-69
2023/12/17 03:18:34;;;;;;;11.83;9.40;;;8.00;99.90;;;;;;5032978;28;20209;-70
2023/12/17 03:21:00;;;;;;;20.13;12.90;;;8.00;99.90;;;;;;5032733;28;20180;-71
2023/12/17 03:23:26;;;;;;;14.90;12.83;;;7.90;99.90;;;;;;5032393;28;20538;-71
2023/12/17 03:25:51;;;;;;;16.43;12.57;;;7.90;99.90;;;;;;5032763;28;20255;-70
2023/12/17 03:28:17;;;;;;;13.03;10.93;;;7.90;99.90;;;;;;5032438;28;20225;-69
2023/12/17 03:30:42;;;;;;;13.43;10.97;;;8.00;99.90;;;;;;5031192;28;20613;-70
2023/12/17 03:33:09;;;;;;;15.20;11.47;;;8.00;99.90;;;;;;5032203;28;20176;-70
2023/12/17 03:35:34;;;;;;;16.20;12.77;;;7.90;99.90;;;;;;5032686;28;20659;-71
2023/12/17 03:38:00;;;;;;;12.63;10.97;;;8.00;99.90;;;;;;5032051;28;20207;-71
2023/12/17 03:40:25;;;;;;;14.23;11.43;;;8.00;99.90;;;;;;5032496;28;20517;-71
2023/12/17 03:42:51;;;;;;;16.60;11.87;;;8.00;99.90;;;;;;5031884;28;20186;-70
2023/12/17 03:45:17;;;;;;;14.73;11.40;;;8.10;99.90;;;;;;5032637;28;20164;-70
2023/12/17 03:47:46;;;;;;;13.10;10.27;;;8.00;99.90;;;;;;5032011;28;20224;-70
2023/12/17 03:50:12;;;;;;;12.90;10.17;;;8.00;99.90;;;;;;5032469;28;20477;-71
2023/12/17 03:52:38;;;;;;;13.73;10.03;;;8.00;99.90;;;;;;5031932;28;20186;-67
2023/12/17 03:55:04;;;;;;;12.80;9.40;;;8.00;99.90;;;;;;5032585;28;20175;-70
2023/12/17 03:57:29;;;;;;;11.90;10.10;;;8.00;99.90;;;;;;5032599;28;20194;-70
2023/12/17 03:59:55;;;;;;;12.77;9.67;;;8.00;99.90;;;;;;5032932;28;20175;-71
2023/12/17 04:02:20;;;;;;;12.60;10.17;;;7.90;99.90;;;;;;5031855;28;20218;-70
2023/12/17 04:04:46;;;;;;;11.10;9.30;;;7.90;99.90;;;;;;5032292;28;20526;-70
2023/12/17 04:07:11;;;;;;;11.70;10.33;;;7.90;99.90;;;;;;5032443;28;20234;-70
2023/12/17 04:09:37;;;;;;;15.67;10.70;;;7.90;99.90;;;;;;5031647;28;20175;-71
2023/12/17 04:12:03;;;;;;;14.67;10.50;;;7.90;99.90;;;;;;5031743;28;20598;-71
2023/12/17 04:14:28;;;;;;;13.07;10.47;;;7.90;99.90;;;;;;5031767;28;20283;-70
2023/12/17 04:16:54;;;;;;;13.40;10.37;;;7.90;99.90;;;;;;5031846;28;20638;-71
2023/12/17 04:19:19;;;;;;;13.63;9.90;;;7.90;99.90;;;;;;5031812;28;20171;-71
2023/12/17 04:21:45;;;;;;;15.67;10.53;;;7.90;99.90;;;;;;5031655;28;20225;-71
2023/12/17 04:24:11;;;;;;;12.93;9.83;;;8.00;99.90;;;;;;5031552;28;20659;-71
2023/12/17 04:26:36;;;;;;;12.33;9.80;;;7.90;99.90;;;;;;5031531;28;20298;-70
2023/12/17 04:29:02;;;;;;;14.50;10.17;;;7.90;99.90;;;;;;5031576;28;20179;-71
2023/12/17 04:31:27;;;;;;;11.07;9.70;;;7.90;99.90;;;;;;5031323;28;20203;-71
2023/12/17 04:33:53;;;;;;;13.17;10.37;;;8.00;99.90;;;;;;5030651;28;20234;-71
2023/12/17 04:36:18;;;;;;;12.10;9.90;;;8.00;99.90;;;;;;5030902;28;20705;-69
2023/12/17 04:38:46;;;;;;;12.20;10.33;;;8.00;99.90;;;;;;5031133;28;20310;-71
2023/12/17 04:41:12;;;;;;;10.20;9.17;;;8.00;99.90;;;;;;5032042;28;20646;-71
2023/12/17 04:43:38;;;;;;;14.10;9.67;;;8.00;99.90;;;;;;5032383;28;20179;-71
2023/12/17 04:46:04;;;;;;;12.87;9.70;;;8.00;99.90;;;;;;5032205;28;20724;-71
2023/12/17 04:48:29;;;;;;;10.50;8.97;;;8.00;99.90;;;;;;5034178;28;20290;-70
2023/12/17 04:50:55;;;;;;;11.33;8.67;;;8.00;99.90;;;;;;5032468;28;20195;-69
2023/12/17 04:53:20;;;;;;;13.83;8.83;;;7.90;99.90;;;;;;5032234;28;20567;-71
2023/12/17 04:55:46;;;;;;;11.17;8.47;;;8.00;99.90;;;;;;5031279;28;20168;-72
2023/12/17 04:58:12;;;;;;;12.20;9.07;;;8.00;99.90;;;;;;5031473;28;20219;-71
2023/12/17 05:00:37;;;;;;;10.33;8.53;;;8.00;99.90;;;;;;5031320;28;20518;-71
2023/12/17 05:03:05;;;;;;;11.47;8.50;;;7.90;99.90;;;;;;5029748;28;20667;-70
2023/12/17 05:05:30;;;;;;;10.10;9.10;;;8.00;99.90;;;;;;5031133;28;20269;-71
2023/12/17 05:07:56;;;;;;;11.70;10.37;;;8.00;99.90;;;;;;5031685;28;20207;-71
2023/12/17 05:10:21;;;;;;;12.00;9.70;;;8.00;99.90;;;;;;5031640;28;20244;-70
2023/12/17 05:12:47;;;;;;;10.47;9.27;;;8.00;99.90;;;;;;5030817;28;20175;-69
2023/12/17 05:15:13;;;;;;;12.13;9.80;;;7.90;99.90;;;;;;5030991;28;20713;-71
2023/12/17 05:17:39;;;;;;;14.07;11.30;;;7.90;99.90;;;;;;5030797;28;20642;-70
2023/12/17 05:20:06;;;;;;;11.03;9.87;;;7.90;99.90;;;;;;5030886;28;20179;-71
2023/12/17 05:22:31;;;;;;;11.77;10.60;;;7.90;99.90;;;;;;5030600;28;20194;-70
2023/12/17 05:24:57;;;;;;;15.73;10.03;;;7.90;99.90;;;;;;5030801;28;20180;-71
2023/12/17 05:27:23;;;;;;;10.40;9.30;;;7.90;99.90;;;;;;5030792;28;20214;-71
2023/12/17 05:29:48;;;;;;;13.50;9.73;;;8.00;99.90;;;;;;5030055;28;20607;-71
2023/12/17 05:32:14;;;;;;;14.17;8.47;;;7.90;99.90;;;;;;5030083;28;20649;-70
2023/12/17 05:34:40;;;;;;;9.70;8.70;;;7.90;99.90;;;;;;5029615;28;20183;-70
2023/12/17 05:37:05;;;;;;;13.43;10.63;;;7.80;99.90;;;;;;5031131;28;20199;-71
2023/12/17 05:39:31;;;;;;;12.87;9.67;;;7.80;99.90;;;;;;5030876;28;20205;-71
2023/12/17 05:41:56;;;;;;;10.83;9.30;;;7.80;99.90;;;;;;5030617;28;20213;-71
2023/12/17 05:44:22;;;;;;;10.63;9.60;;;7.90;99.90;;;;;;5030906;28;20194;-71
2023/12/17 05:46:48;;;;;;;14.37;10.87;;;7.90;99.90;;;;;;5034529;28;20195;-71
2023/12/17 05:49:13;;;;;;;12.83;9.90;;;7.80;99.90;;;;;;5034282;28;20179;-71
2023/12/17 05:51:43;;;;;;;12.13;8.70;;;7.80;99.90;;;;;;5034797;28;20214;-72
2023/12/17 05:54:10;;;;;;;10.73;9.50;;;7.90;99.90;;;;;;5033928;28;20207;-71
2023/12/17 05:56:42;;;;;;;11.77;8.97;;;7.80;99.90;;;;;;5033858;28;20210;-71
2023/12/17 05:59:09;;;;;;;9.63;8.60;;;7.80;99.90;;;;;;5033892;28;20197;-71
2023/12/17 06:01:35;;;;;;;14.93;9.23;;;7.80;99.90;;;;;;5034045;28;20241;-71
2023/12/17 06:04:00;;;;;;;9.63;8.63;;;7.80;99.90;;;;;;5032611;28;20638;-71
2023/12/17 06:06:26;;;;;;;9.20;8.20;;;7.80;99.90;;;;;;5034098;28;20183;-72
2023/12/17 06:08:52;;;;;;;8.90;7.80;;;7.80;99.90;;;;;;5034429;28;20225;-71
2023/12/17 06:11:18;;;;;;;9.50;8.50;;;7.80;99.90;;;;;;5033996;28;20276;-71
2023/12/17 06:13:44;;;;;;;10.40;9.30;;;7.80;99.90;;;;;;5033636;28;20176;-72
2023/12/17 06:16:11;;;;;;;10.13;8.10;;;7.80;99.90;;;;;;5033685;28;20186;-70
2023/12/17 06:18:36;;;;;;;9.80;8.27;;;7.80;99.90;;;;;;5034171;28;20246;-71
2023/12/17 06:21:02;;;;;;;10.43;8.63;;;7.80;99.90;;;;;;5033741;28;20498;-70
2023/12/17 06:23:28;;;;;;;11.87;8.57;;;7.80;99.90;;;;;;5033617;28;20237;-70
2023/12/17 06:25:54;;;;;;;10.47;8.77;;;7.80;99.90;;;;;;5033103;28;20298;-71
2023/12/17 06:28:25;;;;;;;13.43;12.03;;;7.80;99.90;;;;;;5032670;28;20210;-71
2023/12/17 06:30:51;;;;;;;12.47;11.17;;;7.80;99.90;;;;;;5033778;28;20203;-70
2023/12/17 06:33:16;;;;;;;15.80;13.93;;;7.80;99.90;;;;;;5033907;28;20253;-71
2023/12/17 06:35:45;;;;;;;8.70;7.83;;;7.80;99.90;;;;;;5033755;28;20214;-70
2023/12/17 06:38:10;;;;;;;7.67;6.97;;;7.90;99.90;;;;;;5033614;28;20256;-71
2023/12/17 06:40:36;;;;;;;9.83;7.43;;;7.80;99.90;;;;;;5033683;28;20548;-71
2023/12/17 06:43:02;;;;;;;7.23;6.63;;;7.80;99.90;;;;;;5032253;28;20540;-71
2023/12/17 06:45:28;;;;;;;8.23;7.43;;;7.90;99.90;;;;;;5033137;28;20187;-70
2023/12/17 06:47:54;;;;;;;7.30;6.60;;;7.90;99.90;;;;;;5033073;28;20333;-70
2023/12/17 06:50:19;;;;;;;7.77;6.40;;;7.90;99.90;;;;;;5033095;28;20258;-70
2023/12/17 06:52:45;;;;;;;7.57;6.73;;;8.00;99.90;;;;;;5033212;28;20187;-71
2023/12/17 06:55:11;;;;;;;9.97;5.70;;;8.00;99.90;;;;;;5033599;28;20928;-70
2023/12/17 06:57:36;;;;;;;6.87;6.27;;;8.00;99.90;;;;;;5032001;28;20276;-71
2023/12/17 07:00:02;;;;;;;6.00;5.40;;;8.00;99.90;;;;;;5033259;28;20627;-71
2023/12/17 07:02:27;;;;;;;5.70;5.30;;;8.00;99.90;;;;;;5032822;28;20176;-70
2023/12/17 07:04:53;;;;;;;5.90;5.50;;;8.00;99.90;;;;;;5032897;28;20589;-72
2023/12/17 07:07:19;;;;;;;5.60;5.10;;;8.10;99.90;;;;;;5032760;28;20587;-71
2023/12/17 07:09:44;;;;;;;6.00;5.60;;;8.10;99.90;;;;;;5031087;28;20187;-71
2023/12/17 07:12:10;;;;;;;5.93;5.43;;;8.20;99.90;;;;;;5018904;28;20226;-71
2023/12/17 07:14:36;;;;;;;5.80;5.33;;;8.20;99.90;;;;;;5032927;28;20659;-71
2023/12/17 07:17:02;;;;;;;5.87;5.47;;;8.20;99.90;;;;;;5032808;28;20234;-70
2023/12/17 07:19:28;;;;;;;5.97;5.57;;;8.30;99.90;;;;;;5032598;28;20222;-72
2023/12/17 07:21:53;;;;;;;5.60;5.13;;;8.20;99.90;;;;;;5032640;28;20176;-72
2023/12/17 07:24:19;;;;;;;5.80;5.30;;;8.20;99.90;;;;;;5032221;28;20716;-71
2023/12/17 07:26:45;;;;;;;6.10;5.60;;;8.20;99.90;;;;;;5032454;28;20223;-72
2023/12/17 07:29:11;;;;;;;6.37;5.77;;;8.30;99.90;;;;;;5032477;28;20179;-72
2023/12/17 07:31:37;;;;;;;5.50;5.10;;;8.30;99.90;;;;;;5032434;28;20269;-71
2023/12/17 07:34:02;;;;;;;6.00;5.50;;;8.30;99.90;;;;;;5032188;28;20171;-71
2023/12/17 07:36:28;;;;;;;6.50;6.00;;;8.30;99.90;;;;;;5032729;28;20190;-70
2023/12/17 07:38:53;;;;;;;5.93;5.43;;;8.40;99.90;;;;;;5032059;28;20317;-71
2023/12/17 07:41:19;;;;;;;6.30;5.70;;;8.30;99.90;;;;;;5031961;28;20190;-72
2023/12/17 07:43:45;;;;;;;6.60;5.87;;;8.30;99.90;;;;;;5031949;28;20183;-72
2023/12/17 07:46:10;;;;;;;6.07;5.57;;;8.30;99.90;;;;;;5032207;28;20591;-71
2023/12/17 07:48:36;;;;;;;6.37;5.77;;;8.30;99.90;;;;;;5032163;28;20277;-72
2023/12/17 07:51:02;;;;;;;6.70;6.10;;;8.30;99.90;;;;;;5033136;28;20227;-72
2023/12/17 07:53:28;;;;;;;6.53;5.93;;;8.30;99.90;;;;;;5033176;28;20175;-72
2023/12/17 07:55:57;;;;;;;6.53;5.93;;;8.30;99.90;;;;;;5034072;28;20167;-72
2023/12/17 07:58:24;;;;;;;6.40;5.87;;;8.30;99.90;;;;;;5032541;28;20195;-72
2023/12/17 08:00:50;;;;;;;6.17;5.67;;;8.30;99.90;;;;;;5033154;28;20519;-72
2023/12/17 08:03:16;;;;;;;6.30;5.50;;;8.30;99.90;;;;;;5032493;28;20175;-72
2023/12/17 08:05:42;;;;;;;6.67;6.07;;;8.30;99.90;;;;;;5031697;28;20197;-71
2023/12/17 08:08:07;;;;;;;8.10;7.27;;;8.20;99.90;;;;;;5031441;28;20191;-70
2023/12/17 08:10:33;;;;;;;7.00;6.30;;;8.20;99.90;;;;;;5031807;28;20172;-70
2023/12/17 08:12:58;;;;;;;7.17;6.57;;;8.30;99.90;;;;;;5031714;28;20225;-69
2023/12/17 08:15:24;;;;;;;8.27;7.40;;;8.40;99.90;;;;;;5031713;28;20249;-69
2023/12/17 08:17:50;;;;;;;8.00;7.23;;;8.40;99.90;;;;;;5030478;28;20238;-69
2023/12/17 08:20:15;;;;;;;8.80;7.90;;;8.40;99.90;;;;;;5031432;28;20183;-70
2023/12/17 08:22:41;;;;;;;8.00;7.20;;;8.40;99.90;;;;;;5031245;28;20179;-70
2023/12/17 08:25:07;;;;;;;10.10;8.13;;;8.50;99.90;;;;;;5031701;28;20183;-69
2023/12/17 08:27:32;;;;;;;8.87;7.97;;;8.50;99.90;;;;;;5030420;28;20301;-70
2023/12/17 08:29:59;;;;;;;9.40;7.83;;;8.50;99.90;;;;;;5031660;28;20190;-69
2023/12/17 08:32:31;;;;;;;8.50;7.70;;;8.60;99.90;;;;;;5030871;28;20684;-70
2023/12/17 08:34:59;;;;;;;9.30;7.93;;;8.60;99.90;;;;;;5031421;28;20167;-69
2023/12/17 08:37:26;;;;;;;10.07;8.90;;;8.70;99.90;;;;;;5031179;28;20198;-69
2023/12/17 08:39:53;;;;;;;8.93;7.93;;;8.70;99.90;;;;;;5031266;28;20184;-70
2023/12/17 08:42:19;;;;;;;9.73;8.27;;;8.60;99.90;;;;;;5030201;28;20226;-70
2023/12/17 08:44:46;;;;;;;11.20;8.27;;;8.70;99.90;;;;;;5030652;28;20267;-70
2023/12/17 08:47:11;;;;;;;13.10;8.80;;;8.70;99.90;;;;;;5027081;28;20191;-68
2023/12/17 08:49:37;;;;;;;12.23;8.50;;;8.80;99.90;;;;;;5031191;28;20182;-70
2023/12/17 08:52:03;;;;;;;9.10;8.10;;;8.90;99.90;;;;;;5031093;28;20206;-69
2023/12/17 08:54:28;;;;;;;9.60;8.57;;;8.90;99.90;;;;;;5030833;28;20205;-70
2023/12/17 08:56:54;;;;;;;9.70;8.80;;;8.90;99.90;;;;;;5030902;28;20548;-71
2023/12/17 08:59:19;;;;;;;11.70;9.00;;;8.90;99.90;;;;;;5031111;28;20171;-69
2023/12/17 09:01:45;;;;;;;10.53;8.73;;;9.10;99.90;;;;;;5030393;28;20187;-68
2023/12/17 09:04:17;;;;;;;9.97;8.13;;;9.10;99.90;;;;;;5029353;28;20237;-69
2023/12/17 09:06:47;;;;;;;10.60;8.17;;;9.20;99.90;;;;;;5030999;28;20214;-70
2023/12/17 09:09:13;;;;;;;9.17;8.20;;;9.20;99.90;;;;;;5031071;28;20167;-70
2023/12/17 09:11:39;;;;;;;10.40;8.97;;;9.30;99.90;;;;;;5030759;28;20235;-70
2023/12/17 09:14:07;;;;;;;8.83;8.03;;;9.40;99.90;;;;;;5031103;28;20253;-70
2023/12/17 09:16:38;;;;;;;10.17;7.87;;;9.40;99.90;;;;;;5030576;28;20195;-71
2023/12/17 09:19:03;;;;;;;9.80;8.53;;;9.40;99.90;;;;;;5036768;23;20228;-69
2023/12/17 09:21:29;;;;;;;10.90;8.80;;;9.50;99.90;;;;;;5017594;28;20199;-69
2023/12/17 09:23:54;;;;;;;9.70;7.90;;;9.40;99.90;;;;;;5017930;28;20647;-69
2023/12/17 09:26:20;;;;;;;10.00;8.33;;;9.40;99.90;;;;;;5017318;28;20239;-69
2023/12/17 09:28:47;;;;;;;9.60;8.60;;;9.40;99.90;;;;;;5033448;28;20265;-69
2023/12/17 09:31:13;;;;;;;10.17;8.17;;;9.40;99.90;;;;;;5037307;28;20203;-69
2023/12/17 09:33:39;;;;;;;9.93;8.60;;;9.30;99.90;;;;;;5037398;28;20689;-69
2023/12/17 09:36:05;;;;;;;9.20;8.00;;;9.30;99.90;;;;;;5037314;28;20171;-69
2023/12/17 09:38:31;;;;;;;11.30;8.53;;;9.30;99.90;;;;;;5036901;28;20190;-70
2023/12/17 09:40:57;;;;;;;8.90;8.00;;;9.30;99.90;;;;;;5036174;28;20179;-69
2023/12/17 09:43:25;;;;;;;10.40;8.57;;;9.40;99.90;;;;;;5036998;28;20211;-69
2023/12/17 09:45:51;;;;;;;12.00;8.57;;;9.40;99.90;;;;;;5037135;28;20646;-69
2023/12/17 09:48:18;;;;;;;10.80;8.47;;;9.50;99.90;;;;;;5037080;28;20282;-70
2023/12/17 09:50:44;;;;;;;19.17;13.23;;;9.50;99.90;;;;;;5035667;28;20182;-69
2023/12/17 09:53:10;;;;;;;10.47;9.27;;;9.60;99.90;;;;;;5037158;28;20230;-70
2023/12/17 09:55:37;;;;;;;14.53;10.60;;;9.60;99.90;;;;;;5036670;28;20175;-70
2023/12/17 09:58:04;;;;;;;11.50;9.27;;;9.70;99.90;;;;;;5036736;28;20199;-69
2023/12/17 10:00:30;;;;;;;8.23;7.43;;;9.70;99.90;;;;;;5036594;28;20373;-70
2023/12/17 10:03:05;;;;;;;9.87;7.67;;;9.70;99.90;;;;;;5036270;28;20219;-69
2023/12/17 10:05:31;;;;;;;9.13;8.07;;;9.70;99.90;;;;;;5035757;28;20182;-70
2023/12/17 10:07:59;;;;;;;8.63;7.83;;;9.70;99.90;;;;;;5037180;28;20273;-70
2023/12/17 10:10:25;;;;;;;8.63;7.47;;;9.70;99.90;;;;;;5036953;28;20164;-69
2023/12/17 10:12:51;;;;;;;8.37;6.80;;;9.80;99.90;;;;;;5036990;28;20199;-70
2023/12/17 10:15:18;;;;;;;10.83;8.37;;;9.80;99.90;;;;;;5036312;28;20291;-70
2023/12/17 10:17:44;;;;;;;7.33;6.60;;;9.90;99.90;;;;;;5036612;28;20574;-70
2023/12/17 10:20:10;;;;;;;7.10;6.50;;;9.90;99.90;;;;;;5036974;28;20186;-69
2023/12/17 10:22:36;;;;;;;7.10;6.40;;;9.90;99.90;;;;;;5036688;28;20720;-70
2023/12/17 10:25:02;;;;;;;7.30;6.60;;;9.90;99.90;;;;;;5036779;28;20344;-70
2023/12/17 10:27:30;;;;;;;8.33;6.53;;;10.00;99.90;;;;;;5035516;28;20272;-70
2023/12/17 10:29:59;;;;;;;6.57;5.97;;;10.10;99.90;;;;;;5052905;28;20274;-69
2023/12/17 10:32:26;;;;;;;6.70;6.10;;;10.10;99.90;;;;;;5053554;28;20209;-70
2023/12/17 10:34:53;;;;;;;9.03;8.20;;;10.20;99.90;;;;;;5035060;28;20186;-69
2023/12/17 10:37:20;;;;;;;7.60;6.90;;;10.10;99.90;;;;;;5033684;28;20223;-69
2023/12/17 10:39:50;;;;;;;10.60;8.90;;;10.10;99.90;;;;;;5033704;28;20176;-70
2023/12/17 10:42:19;;;;;;;8.63;7.83;;;10.00;99.90;;;;;;5033028;28;20718;-69
2023/12/17 10:44:50;;;;;;;12.70;9.83;;;10.00;99.90;;;;;;5015397;28;20191;-70
2023/12/17 10:47:21;;;;;;;8.07;7.27;;;10.00;99.90;;;;;;5033487;28;20218;-69
2023/12/17 10:49:47;;;;;;;10.57;9.33;;;9.90;99.90;;;;;;5033454;28;20182;-70
2023/12/17 10:52:12;;;;;;;10.57;8.93;;;9.80;99.90;;;;;;5032608;28;20215;-70
2023/12/17 10:54:39;;;;;;;11.77;8.37;;;9.70;99.90;;;;;;5031569;28;20647;-70
2023/12/17 10:57:10;;;;;;;9.83;8.83;;;9.60;99.90;;;;;;5033441;28;20182;-70
2023/12/17 10:59:38;;;;;;;10.20;8.93;;;9.50;99.90;;;;;;5036688;28;20643;-70
2023/12/17 11:02:07;;;;;;;9.70;8.80;;;9.50;99.90;;;;;;5041276;28;20183;-69
2023/12/17 11:04:33;;;;;;;8.87;7.97;;;9.50;99.90;;;;;;5032685;28;20234;-69
2023/12/17 11:06:59;;;;;;;9.43;8.53;;;9.50;99.90;;;;;;5033180;28;20184;-70
2023/12/17 11:09:25;;;;;;;8.37;7.57;;;9.50;99.90;;;;;;5032791;28;20187;-70
2023/12/17 11:11:51;;;;;;;8.23;7.47;;;9.60;99.90;;;;;;5032872;28;20207;-69
2023/12/17 11:14:17;;;;;;;8.90;7.97;;;9.60;99.90;;;;;;5032325;28;20195;-69
2023/12/17 11:16:43;;;;;;;8.03;7.23;;;9.60;99.90;;;;;;5031627;28;20191;-70
2023/12/17 11:19:12;;;;;;;10.70;7.40;;;9.70;99.90;;;;;;5031679;28;20203;-69
2023/12/17 11:21:40;;;;;;;8.30;7.40;;;9.70;99.90;;;;;;5031418;28;20739;-70
2023/12/17 11:24:07;;;;;;;8.57;7.67;;;9.70;99.90;;;;;;5032432;28;20190;-69
2023/12/17 11:26:41;;;;;;;8.37;7.60;;;9.80;99.90;;;;;;5032028;28;20175;-70
2023/12/17 11:29:37;;;;;;;9.83;8.63;;;9.90;99.90;;;;;;5032755;28;20561;-69
2023/12/17 11:32:05;;;;;;;7.63;6.93;;;10.00;99.90;;;;;;5032132;28;20210;-69
2023/12/17 11:34:31;;;;;;;8.00;7.30;;;10.00;99.90;;;;;;5032070;28;20190;-70
2023/12/17 11:36:58;;;;;;;7.67;6.97;;;10.00;99.90;;;;;;5032351;28;20175;-70
2023/12/17 11:39:29;;;;;;;8.33;7.47;;;9.90;99.90;;;;;;5032727;28;20172;-70
2023/12/17 11:41:55;;;;;;;8.63;7.17;;;9.80;99.90;;;;;;5032374;28;20191;-70
2023/12/17 11:44:21;;;;;;;7.87;7.07;;;9.70;99.90;;;;;;5031881;28;20175;-70
2023/12/17 11:46:48;;;;;;;6.93;6.23;;;9.60;99.90;;;;;;5032251;28;20183;-69
2023/12/17 11:49:24;;;;;;;7.07;6.37;;;9.60;99.90;;;;;;5031663;28;20211;-71
2023/12/17 11:51:51;;;;;;;7.00;6.30;;;9.50;99.90;;;;;;5031672;28;20194;-70
2023/12/17 11:54:24;;;;;;;7.80;7.00;;;9.40;99.90;;;;;;5031948;28;20259;-70
2023/12/17 11:56:50;;;;;;;8.20;7.40;;;9.50;99.90;;;;;;5031869;28;20606;-70
2023/12/17 11:59:30;;;;;;;7.70;7.00;;;9.50;99.90;;;;;;5032139;28;20175;-70
2023/12/17 12:01:56;;;;;;;8.17;7.43;;;9.70;99.90;;;;;;5032003;28;20183;-70
2023/12/17 12:04:21;;;;;;;6.33;5.67;;;10.00;99.90;;;;;;5031961;28;20180;-70
2023/12/17 12:06:52;;;;;;;6.03;5.53;;;10.40;99.90;;;;;;5031776;28;20612;-70
2023/12/17 12:09:19;;;;;;;6.87;6.27;;;10.60;99.90;;;;;;5031961;28;20179;-70
2023/12/17 12:11:44;;;;;;;6.47;5.60;;;10.90;99.90;;;;;;5031420;28;20577;-70
2023/12/17 12:14:10;;;;;;;5.83;5.33;;;11.10;99.90;;;;;;5031647;28;20178;-70
2023/12/17 12:16:44;;;;;;;6.47;5.87;;;11.40;99.90;;;;;;5031592;28;20511;-70
2023/12/17 12:19:10;;;;;;;5.97;5.33;;;11.60;99.90;;;;;;5032097;28;20551;-70
2023/12/17 12:21:35;;;;;;;6.10;5.50;;;11.80;99.90;;;;;;5031266;28;20182;-70
2023/12/17 12:24:03;;;;;;;6.47;5.87;;;12.00;99.90;;;;;;5031445;28;20703;-70
2023/12/17 12:26:32;;;;;;;6.13;5.63;;;11.90;99.90;;;;;;5031551;28;20180;-70
2023/12/17 12:28:59;;;;;;;5.57;5.07;;;12.00;99.90;;;;;;5031495;28;20200;-70
2023/12/17 12:31:26;;;;;;;5.90;5.30;;;12.10;99.90;;;;;;5031595;28;20207;-70
2023/12/17 12:33:58;;;;;;;6.50;5.90;;;12.20;99.90;;;;;;5014146;28;20187;-70
2023/12/17 12:36:23;;;;;;;6.60;5.90;;;12.30;99.90;;;;;;5031532;28;20230;-70
2023/12/17 12:39:03;;;;;;;6.20;5.60;;;12.30;99.90;;;;;;5031211;28;20207;-70
2023/12/17 12:41:29;;;;;;;7.67;6.60;;;12.40;99.90;;;;;;5031733;28;20175;-70
2023/12/17 12:43:56;;;;;;;7.10;6.40;;;12.40;99.90;;;;;;5031265;28;20557;-70